F/V Lycia — FO3848 — position and weather

sailwx.info

Track history (hours):
 
Tides and Currents Weather Stations Pressure Air Temp Water Temp Dewpoint Dewpoint Depression Visibility Wind Speed Wind Dir Waves Ship Positions

F/V Lycia

Last reported at 2018-Feb-22 19:00 UTC. Time now 2018-Feb-22 19:25 UTC.
Position N 48°11' W 004°27'.

Length 10 m.

Type: Fishing. MMSI: 228208800.

Date/timePositionNaut miles runAvg speedWind from/ knotsBaromVisibWave heightAir tempDewpointWater temp
2018-Feb-22 19:00N 48°11' W 004°27'3 5.9
2018-Feb-22 18:30N 48°09' W 004°31'0 0.2
2018-Feb-22 18:00N 48°09' W 004°31'0 0.9
2018-Feb-22 17:31N 48°10' W 004°31'0 0.4
2018-Feb-22 17:00N 48°10' W 004°31'1 1.3
2018-Feb-22 16:30N 48°09' W 004°31'5 9.5
2018-Feb-22 16:00N 48°07' W 004°24'3 6.4
2018-Feb-22 15:30N 48°06' W 004°20'0 0.0
2018-Feb-21 22:53N 48°06' W 004°20'0 0.1
2018-Feb-21 22:30N 48°06' W 004°19'0 0.0
2018-Feb-21 22:00N 48°06' W 004°19'4 7.1
2018-Feb-21 21:30N 48°09' W 004°22'0 0.2
2018-Feb-21 21:00N 48°09' W 004°22'1 2.0
2018-Feb-21 20:30N 48°09' W 004°24'5 9.2
2018-Feb-21 20:00N 48°09' W 004°31'4 8.8
2018-Feb-21 19:30N 48°11' W 004°37'4 9.0
2018-Feb-21 19:00N 48°13' W 004°43'0 0.6
2018-Feb-21 18:30N 48°13' W 004°43'3 6.1
2018-Feb-21 18:00N 48°12' W 004°39'5 9.3
2018-Feb-21 17:29N 48°09' W 004°33'3 5.6
2018-Feb-21 17:00N 48°09' W 004°29'0 0.2
2018-Feb-21 16:30N 48°09' W 004°29'4 8.0
2018-Feb-21 16:00N 48°08' W 004°23'3 5.4
2018-Feb-21 15:29N 48°06' W 004°20'0 0.0
2018-Feb-21 01:42N 48°06' W 004°20'0 0.1
2018-Feb-21 01:30N 48°06' W 004°20'0 0.1
2018-Feb-21 01:00N 48°06' W 004°20'0 0.2
2018-Feb-21 00:29N 48°06' W 004°19'0 0.0
2018-Feb-21 00:01N 48°06' W 004°19'0 0.0
2018-Feb-20 23:30N 48°06' W 004°19'0 0.0
2018-Feb-20 22:59N 48°06' W 004°19'0 0.0
2018-Feb-20 22:30N 48°06' W 004°19'0 0.0
2018-Feb-20 22:00N 48°06' W 004°19'0 0.0
2018-Feb-20 21:30N 48°06' W 004°19'0 0.0
2018-Feb-20 21:01N 48°06' W 004°19'0 0.0
2018-Feb-20 20:30N 48°06' W 004°19'2 4.7
2018-Feb-20 20:00N 48°08' W 004°21'3 7.0
2018-Feb-20 19:30N 48°11' W 004°23'0 0.4
2018-Feb-20 19:00N 48°11' W 004°23'2 3.6
2018-Feb-20 18:30N 48°10' W 004°22'2 3.9
2018-Feb-20 18:01N 48°08' W 004°23'1 2.0
2018-Feb-20 17:30N 48°09' W 004°22'3 6.6
2018-Feb-20 17:00N 48°11' W 004°19'4 7.3
2018-Feb-20 16:30N 48°12' W 004°25'1 2.7
2018-Feb-20 16:01N 48°13' W 004°23'4 8.9
2018-Feb-20 15:30N 48°08' W 004°21'3 5.1
2018-Feb-20 15:00N 48°06' W 004°20'0 0.0
2018-Feb-19 22:08N 48°06' W 004°20'0 0.0
2018-Feb-19 22:00N 48°06' W 004°20'0 0.2
2018-Feb-19 21:27N 48°06' W 004°19'0 0.0
2018-Feb-19 21:00N 48°06' W 004°19'3 6.8
2018-Feb-19 20:30N 48°09' W 004°19'2 3.9
2018-Feb-19 20:00N 48°11' W 004°21'2 3.6
2018-Feb-19 19:30N 48°12' W 004°23'1 2.0
2018-Feb-19 19:01N 48°12' W 004°24'0 0.7
2018-Feb-19 18:30N 48°12' W 004°24'1 2.0
2018-Feb-19 18:00N 48°11' W 004°24'3 6.1
2018-Feb-19 17:31N 48°08' W 004°23'2 3.9
2018-Feb-19 17:00N 48°07' W 004°24'0 0.3
2018-Feb-19 16:28N 48°07' W 004°25'1 1.9
2018-Feb-19 16:00N 48°07' W 004°24'3 6.9
2018-Feb-19 15:30N 48°06' W 004°19'0 0.0
2018-Feb-18 23:56N 48°06' W 004°19'0 0.4
2018-Feb-18 23:30N 48°06' W 004°19'0 0.0
2018-Feb-18 23:00N 48°06' W 004°19'0 0.0
2018-Feb-18 22:30N 48°06' W 004°19'2 3.9
2018-Feb-18 22:00N 48°07' W 004°22'2 4.4
2018-Feb-18 21:31N 48°07' W 004°25'0 0.3
2018-Feb-18 21:00N 48°07' W 004°25'4 8.9
2018-Feb-18 20:30N 48°06' W 004°32'2 3.5
2018-Feb-18 20:01N 48°08' W 004°32'4 7.1
2018-Feb-18 19:31N 48°11' W 004°29'4 7.4
2018-Feb-18 19:00N 48°11' W 004°23'2 3.3
2018-Feb-18 18:31N 48°11' W 004°21'1 1.7
2018-Feb-18 18:00N 48°11' W 004°22'4 7.2
2018-Feb-18 17:30N 48°12' W 004°27'2 3.9
2018-Feb-18 17:01N 48°12' W 004°30'1 2.7
2018-Feb-18 16:30N 48°11' W 004°29'4 7.9
2018-Feb-18 15:58N 48°11' W 004°22'3 5.8
2018-Feb-18 15:30N 48°09' W 004°22'3 6.9
2018-Feb-18 15:00N 48°06' W 004°19'  
2018-Feb-16 00:50N 48°06' W 004°19'0 0.0
2018-Feb-16 00:30N 48°06' W 004°19'0 0.3
2018-Feb-16 00:00N 48°06' W 004°19'0 0.0
2018-Feb-15 23:30N 48°06' W 004°19'0 0.0
2018-Feb-15 22:59N 48°06' W 004°19'0 0.0
2018-Feb-15 22:31N 48°06' W 004°19'0 0.0
2018-Feb-15 22:00N 48°06' W 004°19'0 0.0
2018-Feb-15 21:30N 48°06' W 004°19'2 4.9
2018-Feb-15 21:00N 48°07' W 004°23'4 7.2
2018-Feb-15 20:30N 48°08' W 004°28'1 2.6
2018-Feb-15 20:00N 48°09' W 004°28'2 4.1
2018-Feb-15 19:31N 48°11' W 004°28'1 2.4
2018-Feb-15 19:00N 48°12' W 004°27'0 0.4
2018-Feb-15 18:30N 48°12' W 004°27'3 5.8
2018-Feb-15 18:00N 48°10' W 004°24'1 2.6
2018-Feb-15 17:30N 48°09' W 004°23'5 9.2
2018-Feb-15 17:01N 48°09' W 004°30'3 6.1
2018-Feb-15 16:30N 48°12' W 004°28'2 4.0
2018-Feb-15 16:01N 48°10' W 004°27'4 7.3
2018-Feb-15 15:30N 48°10' W 004°22'4 8.2
2018-Feb-15 15:00N 48°06' W 004°20'0 0.9
2018-Feb-15 14:30N 48°06' W 004°19'0 0.0
2018-Feb-15 13:59N 48°06' W 004°19'0 0.0
2018-Feb-15 13:30N 48°06' W 004°19'0 0.0
2018-Feb-15 11:49N 48°06' W 004°19'0 0.0
2018-Feb-15 11:29N 48°06' W 004°19'0 0.0
2018-Feb-15 11:00N 48°06' W 004°19'0 0.0
2018-Feb-15 10:30N 48°06' W 004°19'0 0.0
2018-Feb-15 10:00N 48°06' W 004°19'0 0.1
2018-Feb-15 09:30N 48°06' W 004°19'0 0.0
2018-Feb-14 21:07N 48°06' W 004°19'0 0.1
2018-Feb-14 21:00N 48°06' W 004°19'0 0.0
2018-Feb-14 20:30N 48°06' W 004°19'0 0.0
2018-Feb-14 20:00N 48°06' W 004°19'1 1.2
2018-Feb-14 19:30N 48°06' W 004°19'3 5.7
2018-Feb-14 19:00N 48°09' W 004°22'4 7.6
2018-Feb-14 18:31N 48°10' W 004°27'4 8.1
2018-Feb-14 18:00N 48°10' W 004°21'1 2.3
2018-Feb-14 17:30N 48°09' W 004°20'1 1.3
2018-Feb-14 17:00N 48°09' W 004°20'0 0.8
2018-Feb-14 16:30N 48°08' W 004°20'2 3.8
2018-Feb-14 16:00N 48°08' W 004°23'1 2.5
2018-Feb-14 15:30N 48°07' W 004°22'2 3.9
2018-Feb-14 15:00N 48°06' W 004°20'0 0.0
2018-Feb-13 15:31N 48°06' W 004°20'0 0.0
2018-Feb-13 15:29N 48°06' W 004°20'0 0.0
2018-Feb-13 14:59N 48°06' W 004°20'0 0.0
2018-Feb-13 09:47N 48°06' W 004°20'0 0.0
2018-Feb-13 09:26N 48°06' W 004°20'0 0.0
2018-Feb-12 20:07N 48°06' W 004°20'0 0.0
2018-Feb-12 20:00N 48°06' W 004°20'0 0.2
2018-Feb-12 19:27N 48°06' W 004°19'  
Track history (hours):
 
Tides and Currents Weather Stations Pressure Air Temp Water Temp Dewpoint Dewpoint Depression Visibility Wind Speed Wind Dir Waves Ship Positions

F/V Lycia

Last reported at 2018-Feb-22 19:00 UTC. Time now 2018-Feb-22 19:25 UTC.
Position N 48°11' W 004°27'.

Length 10 m.

Type: Fishing. MMSI: 228208800.

Date/timePositionNaut miles runAvg speedWind from/ knotsBaromVisibWave heightAir tempDewpointWater temp
2018-Feb-22 19:00N 48°11' W 004°27'3 5.9
2018-Feb-22 18:30N 48°09' W 004°31'0 0.2
2018-Feb-22 18:00N 48°09' W 004°31'0 0.9
2018-Feb-22 17:31N 48°10' W 004°31'0 0.4
2018-Feb-22 17:00N 48°10' W 004°31'1 1.3
2018-Feb-22 16:30N 48°09' W 004°31'5 9.5
2018-Feb-22 16:00N 48°07' W 004°24'3 6.4
2018-Feb-22 15:30N 48°06' W 004°20'0 0.0
2018-Feb-21 22:53N 48°06' W 004°20'0 0.1
2018-Feb-21 22:30N 48°06' W 004°19'0 0.0
2018-Feb-21 22:00N 48°06' W 004°19'4 7.1
2018-Feb-21 21:30N 48°09' W 004°22'0 0.2
2018-Feb-21 21:00N 48°09' W 004°22'1 2.0
2018-Feb-21 20:30N 48°09' W 004°24'5 9.2
2018-Feb-21 20:00N 48°09' W 004°31'4 8.8
2018-Feb-21 19:30N 48°11' W 004°37'4 9.0
2018-Feb-21 19:00N 48°13' W 004°43'0 0.6
2018-Feb-21 18:30N 48°13' W 004°43'3 6.1
2018-Feb-21 18:00N 48°12' W 004°39'5 9.3
2018-Feb-21 17:29N 48°09' W 004°33'3 5.6
2018-Feb-21 17:00N 48°09' W 004°29'0 0.2
2018-Feb-21 16:30N 48°09' W 004°29'4 8.0
2018-Feb-21 16:00N 48°08' W 004°23'3 5.4
2018-Feb-21 15:29N 48°06' W 004°20'0 0.0
2018-Feb-21 01:42N 48°06' W 004°20'0 0.1
2018-Feb-21 01:30N 48°06' W 004°20'0 0.1
2018-Feb-21 01:00N 48°06' W 004°20'0 0.2
2018-Feb-21 00:29N 48°06' W 004°19'0 0.0
2018-Feb-21 00:01N 48°06' W 004°19'0 0.0
2018-Feb-20 23:30N 48°06' W 004°19'0 0.0
2018-Feb-20 22:59N 48°06' W 004°19'0 0.0
2018-Feb-20 22:30N 48°06' W 004°19'0 0.0
2018-Feb-20 22:00N 48°06' W 004°19'0 0.0
2018-Feb-20 21:30N 48°06' W 004°19'0 0.0
2018-Feb-20 21:01N 48°06' W 004°19'0 0.0
2018-Feb-20 20:30N 48°06' W 004°19'2 4.7
2018-Feb-20 20:00N 48°08' W 004°21'3 7.0
2018-Feb-20 19:30N 48°11' W 004°23'0 0.4
2018-Feb-20 19:00N 48°11' W 004°23'2 3.6
2018-Feb-20 18:30N 48°10' W 004°22'2 3.9
2018-Feb-20 18:01N 48°08' W 004°23'1 2.0
2018-Feb-20 17:30N 48°09' W 004°22'3 6.6
2018-Feb-20 17:00N 48°11' W 004°19'4 7.3
2018-Feb-20 16:30N 48°12' W 004°25'1 2.7
2018-Feb-20 16:01N 48°13' W 004°23'4 8.9
2018-Feb-20 15:30N 48°08' W 004°21'3 5.1
2018-Feb-20 15:00N 48°06' W 004°20'0 0.0
2018-Feb-19 22:08N 48°06' W 004°20'0 0.0
2018-Feb-19 22:00N 48°06' W 004°20'0 0.2
2018-Feb-19 21:27N 48°06' W 004°19'0 0.0
2018-Feb-19 21:00N 48°06' W 004°19'3 6.8
2018-Feb-19 20:30N 48°09' W 004°19'2 3.9
2018-Feb-19 20:00N 48°11' W 004°21'2 3.6
2018-Feb-19 19:30N 48°12' W 004°23'1 2.0
2018-Feb-19 19:01N 48°12' W 004°24'0 0.7
2018-Feb-19 18:30N 48°12' W 004°24'1 2.0
2018-Feb-19 18:00N 48°11' W 004°24'3 6.1
2018-Feb-19 17:31N 48°08' W 004°23'2 3.9
2018-Feb-19 17:00N 48°07' W 004°24'0 0.3
2018-Feb-19 16:28N 48°07' W 004°25'1 1.9
2018-Feb-19 16:00N 48°07' W 004°24'3 6.9
2018-Feb-19 15:30N 48°06' W 004°19'0 0.0
2018-Feb-18 23:56N 48°06' W 004°19'0 0.4
2018-Feb-18 23:30N 48°06' W 004°19'0 0.0
2018-Feb-18 23:00N 48°06' W 004°19'0 0.0
2018-Feb-18 22:30N 48°06' W 004°19'2 3.9
2018-Feb-18 22:00N 48°07' W 004°22'2 4.4
2018-Feb-18 21:31N 48°07' W 004°25'0 0.3
2018-Feb-18 21:00N 48°07' W 004°25'4 8.9
2018-Feb-18 20:30N 48°06' W 004°32'2 3.5
2018-Feb-18 20:01N 48°08' W 004°32'4 7.1
2018-Feb-18 19:31N 48°11' W 004°29'4 7.4
2018-Feb-18 19:00N 48°11' W 004°23'2 3.3
2018-Feb-18 18:31N 48°11' W 004°21'1 1.7
2018-Feb-18 18:00N 48°11' W 004°22'4 7.2
2018-Feb-18 17:30N 48°12' W 004°27'2 3.9
2018-Feb-18 17:01N 48°12' W 004°30'1 2.7
2018-Feb-18 16:30N 48°11' W 004°29'4 7.9
2018-Feb-18 15:58N 48°11' W 004°22'3 5.8
2018-Feb-18 15:30N 48°09' W 004°22'3 6.9
2018-Feb-18 15:00N 48°06' W 004°19'  
2018-Feb-16 00:50N 48°06' W 004°19'0 0.0
2018-Feb-16 00:30N 48°06' W 004°19'0 0.3
2018-Feb-16 00:00N 48°06' W 004°19'0 0.0
2018-Feb-15 23:30N 48°06' W 004°19'0 0.0
2018-Feb-15 22:59N 48°06' W 004°19'0 0.0
2018-Feb-15 22:31N 48°06' W 004°19'0 0.0
2018-Feb-15 22:00N 48°06' W 004°19'0 0.0
2018-Feb-15 21:30N 48°06' W 004°19'2 4.9
2018-Feb-15 21:00N 48°07' W 004°23'4 7.2
2018-Feb-15 20:30N 48°08' W 004°28'1 2.6
2018-Feb-15 20:00N 48°09' W 004°28'2 4.1
2018-Feb-15 19:31N 48°11' W 004°28'1 2.4
2018-Feb-15 19:00N 48°12' W 004°27'0 0.4
2018-Feb-15 18:30N 48°12' W 004°27'3 5.8
2018-Feb-15 18:00N 48°10' W 004°24'1 2.6
2018-Feb-15 17:30N 48°09' W 004°23'5 9.2
2018-Feb-15 17:01N 48°09' W 004°30'3 6.1
2018-Feb-15 16:30N 48°12' W 004°28'2 4.0
2018-Feb-15 16:01N 48°10' W 004°27'4 7.3
2018-Feb-15 15:30N 48°10' W 004°22'4 8.2
2018-Feb-15 15:00N 48°06' W 004°20'0 0.9
2018-Feb-15 14:30N 48°06' W 004°19'0 0.0
2018-Feb-15 13:59N 48°06' W 004°19'0 0.0
2018-Feb-15 13:30N 48°06' W 004°19'0 0.0
2018-Feb-15 11:49N 48°06' W 004°19'0 0.0
2018-Feb-15 11:29N 48°06' W 004°19'0 0.0
2018-Feb-15 11:00N 48°06' W 004°19'0 0.0
2018-Feb-15 10:30N 48°06' W 004°19'0 0.0
2018-Feb-15 10:00N 48°06' W 004°19'0 0.1
2018-Feb-15 09:30N 48°06' W 004°19'0 0.0
2018-Feb-14 21:07N 48°06' W 004°19'0 0.1
2018-Feb-14 21:00N 48°06' W 004°19'0 0.0
2018-Feb-14 20:30N 48°06' W 004°19'0 0.0
2018-Feb-14 20:00N 48°06' W 004°19'1 1.2
2018-Feb-14 19:30N 48°06' W 004°19'3 5.7
2018-Feb-14 19:00N 48°09' W 004°22'4 7.6
2018-Feb-14 18:31N 48°10' W 004°27'4 8.1
2018-Feb-14 18:00N 48°10' W 004°21'1 2.3
2018-Feb-14 17:30N 48°09' W 004°20'1 1.3
2018-Feb-14 17:00N 48°09' W 004°20'0 0.8
2018-Feb-14 16:30N 48°08' W 004°20'2 3.8
2018-Feb-14 16:00N 48°08' W 004°23'1 2.5
2018-Feb-14 15:30N 48°07' W 004°22'2 3.9
2018-Feb-14 15:00N 48°06' W 004°20'0 0.0
2018-Feb-13 15:31N 48°06' W 004°20'0 0.0
2018-Feb-13 15:29N 48°06' W 004°20'0 0.0
2018-Feb-13 14:59N 48°06' W 004°20'0 0.0
2018-Feb-13 09:47N 48°06' W 004°20'0 0.0
2018-Feb-13 09:26N 48°06' W 004°20'0 0.0
2018-Feb-12 20:07N 48°06' W 004°20'0 0.0
2018-Feb-12 20:00N 48°06' W 004°20'0 0.2
2018-Feb-12 19:27N 48°06' W 004°19'  

Dump ship's entire track history